Time;durP1;ratioP1;P1;durP2;ratioP2;P2;SDS_P1;SDS_P2;PMS_P1;PMS_P2;Temp;Humidity;BMP_temperature;BMP_pressure;BME280_temperature;BME280_humidity;BME280_pressure;Samples;Min_cycle;Max_cycle;Signal;HPM_P1;HPM_P2
2023/12/08 00:01:09;;;;;;;35.07;13.70;;;;;;;;;;6199002;23;20195;-90
2023/12/08 00:04:16;;;;;;;44.83;16.40;;;;;;;;;;6199858;23;20750;-91
2023/12/08 00:07:25;;;;;;;38.93;14.07;;;;;;;;;;6200194;23;20176;-91
2023/12/08 00:10:30;;;;;;;37.67;14.43;;;;;;;;;;6198141;23;20215;-89
2023/12/08 00:13:35;;;;;;;32.77;13.17;;;;;;;;;;6198439;23;20525;-89
2023/12/08 00:16:41;;;;;;;29.77;11.83;;;;;;;;;;6200773;23;20620;-91
2023/12/08 00:19:49;;;;;;;31.37;12.17;;;;;;;;;;6201761;23;20172;-88
2023/12/08 00:22:54;;;;;;;29.17;11.40;;;;;;;;;;6202771;23;20151;-91
2023/12/08 00:25:59;;;;;;;30.17;12.77;;;;;;;;;;6202968;23;20195;-90
2023/12/08 00:29:04;;;;;;;31.07;12.43;;;;;;;;;;6202512;23;20233;-90
2023/12/08 00:32:09;;;;;;;32.77;12.77;;;;;;;;;;6200485;23;20189;-91
2023/12/08 00:35:17;;;;;;;32.47;12.30;;;;;;;;;;6200776;23;20208;-92
2023/12/08 00:38:25;;;;;;;33.80;11.77;;;;;;;;;;6201895;23;20160;-93
2023/12/08 00:41:31;;;;;;;32.63;13.37;;;;;;;;;;6202586;23;20148;-91
2023/12/08 00:44:36;;;;;;;30.00;12.10;;;;;;;;;;6202100;23;20199;-89
2023/12/08 00:47:41;;;;;;;31.73;13.10;;;;;;;;;;6199641;23;20180;-93
2023/12/08 00:50:47;;;;;;;31.57;12.63;;;;;;;;;;6199049;23;20151;-90
2023/12/08 00:53:55;;;;;;;32.47;12.13;;;;;;;;;;6198808;23;20152;-89
2023/12/08 00:57:00;;;;;;;28.43;12.30;;;;;;;;;;6200741;23;20167;-91
2023/12/08 01:00:06;;;;;;;28.70;11.17;;;;;;;;;;6200274;23;20192;-90
2023/12/08 01:03:11;;;;;;;27.30;11.50;;;;;;;;;;6202190;23;20488;-90
2023/12/08 01:06:18;;;;;;;32.03;12.33;;;;;;;;;;6200201;23;20172;-91
2023/12/08 01:09:26;;;;;;;33.37;12.80;;;;;;;;;;6200863;23;20152;-88
2023/12/08 01:12:31;;;;;;;36.27;13.93;;;;;;;;;;6202191;23;20180;-91
2023/12/08 01:15:38;;;;;;;30.63;12.47;;;;;;;;;;6200969;23;20195;-92
2023/12/08 01:18:43;;;;;;;30.00;12.00;;;;;;;;;;6201286;23;20180;-93
2023/12/08 01:21:49;;;;;;;29.30;11.87;;;;;;;;;;6199151;23;20167;-92
2023/12/08 01:24:56;;;;;;;36.57;13.33;;;;;;;;;;6201308;23;20176;-91
2023/12/08 01:28:01;;;;;;;27.67;12.10;;;;;;;;;;6201440;23;20164;-89
2023/12/08 01:31:06;;;;;;;31.00;12.47;;;;;;;;;;6201126;23;20774;-91
2023/12/08 01:34:11;;;;;;;28.70;10.80;;;;;;;;;;6201204;23;20171;-91
2023/12/08 01:37:19;;;;;;;25.43;10.50;;;;;;;;;;6200815;23;20164;-91
2023/12/08 01:40:27;;;;;;;31.60;11.93;;;;;;;;;;6203050;23;20159;-89
2023/12/08 01:43:32;;;;;;;28.80;10.90;;;;;;;;;;6201146;23;20467;-91
2023/12/08 01:46:38;;;;;;;28.37;10.90;;;;;;;;;;6201936;23;20167;-90
2023/12/08 01:49:44;;;;;;;31.10;10.80;;;;;;;;;;6201264;23;20175;-92
2023/12/08 01:52:52;;;;;;;30.73;10.47;;;;;;;;;;6201132;23;20167;-90
2023/12/08 01:55:57;;;;;;;24.00;9.90;;;;;;;;;;6201477;23;20176;-92
2023/12/08 01:59:02;;;;;;;24.43;9.37;;;;;;;;;;6201657;23;20215;-91
2023/12/08 02:02:06;;;;;;;24.47;9.33;;;;;;;;;;6199994;23;20191;-89
2023/12/08 02:05:11;;;;;;;25.03;9.83;;;;;;;;;;6199499;23;20211;-92
2023/12/08 02:08:18;;;;;;;27.37;10.83;;;;;;;;;;6199817;23;20211;-92
2023/12/08 02:11:24;;;;;;;20.27;9.00;;;;;;;;;;6198406;23;20223;-92
2023/12/08 02:14:31;;;;;;;22.57;10.37;;;;;;;;;;6200407;23;20168;-91
2023/12/08 02:17:38;;;;;;;25.50;10.60;;;;;;;;;;6199554;23;20227;-89
2023/12/08 02:20:43;;;;;;;24.87;9.17;;;;;;;;;;6200103;23;20271;-91
2023/12/08 02:23:50;;;;;;;20.93;9.63;;;;;;;;;;6199452;23;20220;-91
2023/12/08 02:26:58;;;;;;;23.77;10.27;;;;;;;;;;6200085;23;20152;-92
2023/12/08 02:30:03;;;;;;;26.33;9.60;;;;;;;;;;6200189;23;20187;-92
2023/12/08 02:33:10;;;;;;;21.73;9.03;;;;;;;;;;6199314;23;20171;-92
2023/12/08 02:36:16;;;;;;;21.97;9.40;;;;;;;;;;6200227;23;20188;-92
2023/12/08 02:39:23;;;;;;;19.37;8.43;;;;;;;;;;6198453;23;20172;-91
2023/12/08 02:42:29;;;;;;;23.87;9.17;;;;;;;;;;6198562;23;20167;-90
2023/12/08 02:45:34;;;;;;;20.87;8.90;;;;;;;;;;6200384;23;20255;-91
2023/12/08 02:48:40;;;;;;;21.20;9.10;;;;;;;;;;6199521;23;20168;-92
2023/12/08 02:51:45;;;;;;;19.63;8.60;;;;;;;;;;6196900;23;20169;-91
2023/12/08 02:54:52;;;;;;;20.40;8.93;;;;;;;;;;6196290;23;20175;-91
2023/12/08 02:57:59;;;;;;;22.73;9.70;;;;;;;;;;6197394;23;20168;-87
2023/12/08 03:01:04;;;;;;;24.93;9.93;;;;;;;;;;6198517;23;20191;-88
2023/12/08 03:04:09;;;;;;;22.63;9.23;;;;;;;;;;6202236;23;20270;-92
2023/12/08 03:07:14;;;;;;;22.63;9.17;;;;;;;;;;6202012;23;20196;-88
2023/12/08 03:10:21;;;;;;;17.33;7.97;;;;;;;;;;6201096;23;20156;-91
2023/12/08 03:13:26;;;;;;;21.00;8.77;;;;;;;;;;6201314;23;20151;-89
2023/12/08 03:16:34;;;;;;;17.80;7.67;;;;;;;;;;6203215;23;20167;-91
2023/12/08 03:19:39;;;;;;;23.70;9.70;;;;;;;;;;6202102;23;20192;-91
2023/12/08 03:22:44;;;;;;;20.13;8.73;;;;;;;;;;6201361;23;20231;-90
2023/12/08 03:25:50;;;;;;;22.30;9.03;;;;;;;;;;6201925;23;20196;-93
2023/12/08 03:28:56;;;;;;;21.53;9.30;;;;;;;;;;6200981;23;20164;-91
2023/12/08 03:32:04;;;;;;;23.17;10.07;;;;;;;;;;6201577;23;20164;-91
2023/12/08 03:35:09;;;;;;;23.53;9.30;;;;;;;;;;6202253;23;20164;-95
2023/12/08 03:38:15;;;;;;;24.57;9.47;;;;;;;;;;6202181;23;20163;-91
2023/12/08 03:41:21;;;;;;;22.67;9.67;;;;;;;;;;6199588;23;20175;-91
2023/12/08 03:44:27;;;;;;;22.23;9.33;;;;;;;;;;6200560;23;20191;-90
2023/12/08 03:47:34;;;;;;;22.70;9.47;;;;;;;;;;6200383;23;20172;-89
2023/12/08 03:50:39;;;;;;;22.00;9.37;;;;;;;;;;6200455;23;20176;-92
2023/12/08 03:53:44;;;;;;;25.00;9.90;;;;;;;;;;6201239;23;20611;-91
2023/12/08 03:56:51;;;;;;;22.77;9.60;;;;;;;;;;6200617;23;20600;-90
2023/12/08 03:59:56;;;;;;;23.00;9.97;;;;;;;;;;6198575;23;20288;-91
2023/12/08 04:03:05;;;;;;;24.10;9.87;;;;;;;;;;6197793;23;20616;-89
2023/12/08 04:06:10;;;;;;;25.50;10.60;;;;;;;;;;6199970;23;20211;-90
2023/12/08 04:09:15;;;;;;;25.27;11.13;;;;;;;;;;6199076;23;20219;-90
2023/12/08 04:12:22;;;;;;;26.60;10.57;;;;;;;;;;6199984;23;20164;-90
2023/12/08 04:15:27;;;;;;;26.33;10.70;;;;;;;;;;6196883;23;20168;-89
2023/12/08 04:18:36;;;;;;;23.57;9.80;;;;;;;;;;6197775;23;20671;-89
2023/12/08 04:21:41;;;;;;;24.60;10.07;;;;;;;;;;6198333;23;20171;-90
2023/12/08 04:24:47;;;;;;;22.30;9.70;;;;;;;;;;6197707;23;20192;-91
2023/12/08 04:27:54;;;;;;;21.97;9.37;;;;;;;;;;6199017;23;20168;-89
2023/12/08 04:31:03;;;;;;;25.37;10.67;;;;;;;;;;6199397;23;20164;-90
2023/12/08 04:34:08;;;;;;;19.60;8.63;;;;;;;;;;6199969;23;20184;-89
2023/12/08 04:37:13;;;;;;;21.50;8.73;;;;;;;;;;6199901;23;20231;-90
2023/12/08 04:40:18;;;;;;;19.87;8.23;;;;;;;;;;6201017;23;20624;-90
2023/12/08 04:43:25;;;;;;;21.63;8.70;;;;;;;;;;6199630;23;20171;-91
2023/12/08 04:46:34;;;;;;;20.40;8.67;;;;;;;;;;6196361;23;20168;-89
2023/12/08 04:49:39;;;;;;;20.83;9.10;;;;;;;;;;6197556;23;20171;-90
2023/12/08 04:52:44;;;;;;;19.23;8.03;;;;;;;;;;6199812;23;20164;-89
2023/12/08 04:55:49;;;;;;;22.73;9.57;;;;;;;;;;6198792;23;20168;-91
2023/12/08 04:58:56;;;;;;;20.03;9.50;;;;;;;;;;6198805;23;20283;-91
2023/12/08 05:02:04;;;;;;;22.13;9.50;;;;;;;;;;6196191;23;20203;-90
2023/12/08 05:05:10;;;;;;;19.87;8.83;;;;;;;;;;6198538;23;20227;-89
2023/12/08 05:08:15;;;;;;;18.77;8.30;;;;;;;;;;6198686;23;20190;-91
2023/12/08 05:11:20;;;;;;;21.73;9.53;;;;;;;;;;6197898;23;20180;-90
2023/12/08 05:14:27;;;;;;;26.37;10.00;;;;;;;;;;6198699;23;20673;-91
2023/12/08 05:17:36;;;;;;;24.30;9.40;;;;;;;;;;6197795;23;20214;-91
2023/12/08 05:20:41;;;;;;;20.80;8.80;;;;;;;;;;6197515;23;20168;-91
2023/12/08 05:23:46;;;;;;;24.47;9.13;;;;;;;;;;6198239;23;20163;-93
2023/12/08 05:26:51;;;;;;;19.33;8.77;;;;;;;;;;6196679;23;20164;-90
2023/12/08 05:29:58;;;;;;;22.60;8.07;;;;;;;;;;6198276;23;20168;-90
2023/12/08 05:33:03;;;;;;;17.37;7.70;;;;;;;;;;6196352;23;20164;-91
2023/12/08 05:36:09;;;;;;;20.43;8.13;;;;;;;;;;6199674;23;20175;-91
2023/12/08 05:39:14;;;;;;;19.20;8.13;;;;;;;;;;6198534;23;20168;-91
2023/12/08 05:42:20;;;;;;;24.87;9.50;;;;;;;;;;6198895;23;20237;-90
2023/12/08 05:45:26;;;;;;;24.20;9.60;;;;;;;;;;6197144;23;20200;-92
2023/12/08 05:48:32;;;;;;;24.10;9.13;;;;;;;;;;6199637;23;20172;-89
2023/12/08 05:51:37;;;;;;;21.30;8.97;;;;;;;;;;6200882;23;20499;-90
2023/12/08 05:54:42;;;;;;;20.37;8.43;;;;;;;;;;6200985;23;20203;-92
2023/12/08 05:57:47;;;;;;;20.67;8.60;;;;;;;;;;6201253;23;20215;-91
2023/12/08 06:00:54;;;;;;;20.20;9.03;;;;;;;;;;6200626;23;20195;-90
2023/12/08 06:03:59;;;;;;;31.07;14.23;;;;;;;;;;6199335;23;20487;-90
2023/12/08 06:07:05;;;;;;;20.33;8.40;;;;;;;;;;6197683;23;20168;-90
2023/12/08 06:10:11;;;;;;;19.33;7.77;;;;;;;;;;6197592;23;20172;-91
2023/12/08 06:13:17;;;;;;;19.03;8.30;;;;;;;;;;6196954;23;20171;-89
2023/12/08 06:16:23;;;;;;;17.17;7.97;;;;;;;;;;6198677;23;20188;-91
2023/12/08 06:19:30;;;;;;;19.97;8.27;;;;;;;;;;6200190;23;20184;-89
2023/12/08 06:22:41;;;;;;;20.90;8.63;;;;;;;;;;6199469;23;20177;-90
2023/12/08 06:25:50;;;;;;;23.33;9.07;;;;;;;;;;6200342;23;20202;-90
2023/12/08 06:29:01;;;;;;;28.63;11.43;;;;;;;;;;6197019;23;20172;-88
2023/12/08 06:32:09;;;;;;;26.30;10.37;;;;;;;;;;6198575;23;20241;-89
2023/12/08 06:35:18;;;;;;;26.50;9.90;;;;;;;;;;6198535;23;20168;-88
2023/12/08 06:38:24;;;;;;;22.67;10.70;;;;;;;;;;6201842;23;20569;-90
2023/12/08 06:41:32;;;;;;;28.37;11.77;;;;;;;;;;6204409;23;20224;-90
2023/12/08 06:44:37;;;;;;;25.67;10.57;;;;;;;;;;6200198;23;20215;-90
2023/12/08 06:47:48;;;;;;;29.17;10.53;;;;;;;;;;6201709;23;20234;-90
2023/12/08 06:50:54;;;;;;;106.70;37.10;;;;;;;;;;6200245;23;20163;-90
2023/12/08 06:53:59;;;;;;;65.90;20.90;;;;;;;;;;6202617;23;20656;-90
2023/12/08 06:57:05;;;;;;;31.07;10.93;;;;;;;;;;6200446;23;20251;-89
2023/12/08 07:00:16;;;;;;;21.93;9.10;;;;;;;;;;6200209;23;20163;-89
2023/12/08 07:03:24;;;;;;;37.80;15.50;;;;;;;;;;6201132;23;20288;-89
2023/12/08 07:06:29;;;;;;;22.87;8.60;;;;;;;;;;6203872;23;20183;-88
2023/12/08 07:09:35;;;;;;;23.03;9.47;;;;;;;;;;6203065;23;20168;-89
2023/12/08 07:12:40;;;;;;;21.47;9.17;;;;;;;;;;6201754;23;20168;-89
2023/12/08 07:15:45;;;;;;;22.90;9.43;;;;;;;;;;6197848;23;20172;-90
2023/12/08 07:18:52;;;;;;;19.83;9.20;;;;;;;;;;6199391;23;20179;-87
2023/12/08 07:21:58;;;;;;;26.00;9.07;;;;;;;;;;6199964;23;20219;-88
2023/12/08 07:25:04;;;;;;;22.97;9.20;;;;;;;;;;6199263;23;20212;-87
2023/12/08 07:28:09;;;;;;;27.30;9.60;;;;;;;;;;6200473;23;20155;-90
2023/12/08 07:31:15;;;;;;;21.80;9.43;;;;;;;;;;6201714;23;20172;-92
2023/12/08 07:34:22;;;;;;;20.33;9.50;;;;;;;;;;6200745;23;20635;-87
2023/12/08 07:37:28;;;;;;;22.13;9.90;;;;;;;;;;6202341;23;20156;-90
2023/12/08 07:40:35;;;;;;;21.23;8.83;;;;;;;;;;6205875;23;20168;-91
2023/12/08 07:43:40;;;;;;;20.00;9.27;;;;;;;;;;6202777;23;20544;-89
2023/12/08 07:46:47;;;;;;;21.53;9.20;;;;;;;;;;6197249;23;20182;-91
2023/12/08 07:49:53;;;;;;;22.63;10.10;;;;;;;;;;6198431;23;20160;-89
2023/12/08 07:52:59;;;;;;;22.03;9.70;;;;;;;;;;6199800;23;20147;-90
2023/12/08 07:56:05;;;;;;;25.90;10.57;;;;;;;;;;6201597;23;20172;-89
2023/12/08 07:59:11;;;;;;;21.97;9.90;;;;;;;;;;6203407;23;20160;-92
2023/12/08 08:02:18;;;;;;;25.83;10.30;;;;;;;;;;6202510;23;20231;-90
2023/12/08 08:05:25;;;;;;;27.50;11.97;;;;;;;;;;6203692;23;20179;-88
2023/12/08 08:08:32;;;;;;;31.27;11.97;;;;;;;;;;6201640;23;20163;-90
2023/12/08 08:11:38;;;;;;;31.40;11.87;;;;;;;;;;6200204;23;20464;-90
2023/12/08 08:14:44;;;;;;;26.17;10.70;;;;;;;;;;6201289;23;20171;-90
2023/12/08 08:17:52;;;;;;;33.90;12.17;;;;;;;;;;6201312;23;20200;-89
2023/12/08 08:21:00;;;;;;;28.37;11.03;;;;;;;;;;6202046;23;20208;-88
2023/12/08 08:24:06;;;;;;;30.60;11.23;;;;;;;;;;6201572;23;20152;-90
2023/12/08 08:27:15;;;;;;;26.37;10.37;;;;;;;;;;6203272;23;20203;-90
2023/12/08 08:30:24;;;;;;;26.47;9.70;;;;;;;;;;6202156;23;20155;-91
2023/12/08 08:33:29;;;;;;;25.50;9.80;;;;;;;;;;6198932;23;20172;-91
2023/12/08 08:36:36;;;;;;;22.07;9.70;;;;;;;;;;6200202;23;20159;-91
2023/12/08 08:39:42;;;;;;;26.10;10.37;;;;;;;;;;6201675;23;20223;-91
2023/12/08 08:42:51;;;;;;;24.50;9.67;;;;;;;;;;6185226;23;20163;-91
2023/12/08 08:45:57;;;;;;;23.23;9.60;;;;;;;;;;6202213;23;20183;-87
2023/12/08 08:49:06;;;;;;;23.67;10.07;;;;;;;;;;6202447;23;20175;-90
2023/12/08 08:52:16;;;;;;;29.07;12.17;;;;;;;;;;6202667;23;20171;-88
2023/12/08 08:55:27;;;;;;;30.50;13.20;;;;;;;;;;6205192;23;20622;-88
2023/12/08 08:58:34;;;;;;;30.17;9.93;;;;;;;;;;6202849;23;20168;-89
2023/12/08 09:01:41;;;;;;;25.03;9.77;;;;;;;;;;6202901;23;20223;-90
2023/12/08 09:04:49;;;;;;;28.37;9.60;;;;;;;;;;6203577;23;20160;-89
2023/12/08 09:07:55;;;;;;;23.70;9.37;;;;;;;;;;6205689;23;20176;-90
2023/12/08 09:11:04;;;;;;;25.93;9.67;;;;;;;;;;6203197;23;20168;-90
2023/12/08 09:14:13;;;;;;;23.13;9.37;;;;;;;;;;6203941;23;20188;-89
2023/12/08 09:17:21;;;;;;;21.80;8.77;;;;;;;;;;6203335;23;20174;-91
2023/12/08 09:20:28;;;;;;;22.03;9.33;;;;;;;;;;6201861;23;20168;-91
2023/12/08 09:23:36;;;;;;;17.47;7.30;;;;;;;;;;6200923;23;20243;-90
2023/12/08 09:26:41;;;;;;;22.23;10.33;;;;;;;;;;6200909;23;20196;-89
2023/12/08 09:29:47;;;;;;;26.23;11.03;;;;;;;;;;6199452;23;20172;-88
2023/12/08 09:32:55;;;;;;;22.33;8.97;;;;;;;;;;6200337;23;20244;-87
2023/12/08 09:36:00;;;;;;;23.10;9.27;;;;;;;;;;6200003;23;20221;-89
2023/12/08 09:39:08;;;;;;;20.73;8.53;;;;;;;;;;6199933;23;20159;-91
2023/12/08 09:42:18;;;;;;;22.70;9.43;;;;;;;;;;6199367;23;20187;-90
2023/12/08 09:45:26;;;;;;;23.17;9.23;;;;;;;;;;6199850;23;20168;-91
2023/12/08 09:48:36;;;;;;;23.03;9.47;;;;;;;;;;6202837;23;20164;-89
2023/12/08 09:51:46;;;;;;;23.13;9.60;;;;;;;;;;6199759;23;20311;-89
2023/12/08 09:54:55;;;;;;;26.70;9.37;;;;;;;;;;6201613;23;20179;-89
2023/12/08 09:58:01;;;;;;;19.00;7.63;;;;;;;;;;6201525;23;20171;-91
2023/12/08 10:01:08;;;;;;;22.00;9.37;;;;;;;;;;6201702;23;20203;-87
2023/12/08 10:07:37;;;;;;;23.93;10.13;;;;;;;;;;6202909;23;20207;-87
2023/12/08 10:10:44;;;;;;;25.67;9.90;;;;;;;;;;6203555;23;20195;-90
2023/12/08 10:13:49;;;;;;;23.33;9.57;;;;;;;;;;6201959;23;20207;-90
2023/12/08 10:16:55;;;;;;;23.43;9.03;;;;;;;;;;6205011;23;20211;-90
2023/12/08 10:20:10;;;;;;;20.93;9.63;;;;;;;;;;6201862;23;20167;-92
2023/12/08 10:23:21;;;;;;;23.67;8.60;;;;;;;;;;6204340;23;20171;-91
2023/12/08 10:26:29;;;;;;;20.07;7.97;;;;;;;;;;6203227;23;20264;-89
2023/12/08 10:29:38;;;;;;;16.40;6.27;;;;;;;;;;6203588;23;20163;-89
2023/12/08 10:32:45;;;;;;;16.07;7.37;;;;;;;;;;6201863;23;20187;-89
2023/12/08 10:35:54;;;;;;;21.13;9.30;;;;;;;;;;6200157;23;20163;-90
2023/12/08 10:39:00;;;;;;;19.60;8.33;;;;;;;;;;6200914;23;20183;-90
2023/12/08 10:42:12;;;;;;;23.47;9.17;;;;;;;;;;6200301;23;20558;-90
2023/12/08 10:45:19;;;;;;;17.47;8.03;;;;;;;;;;6200288;23;20163;-87
2023/12/08 10:48:25;;;;;;;22.47;9.47;;;;;;;;;;6199767;23;20232;-88
2023/12/08 10:51:30;;;;;;;18.20;8.70;;;;;;;;;;6200586;23;20207;-89
2023/12/08 10:54:36;;;;;;;21.40;9.47;;;;;;;;;;6201181;23;20184;-89
2023/12/08 10:57:43;;;;;;;20.73;9.23;;;;;;;;;;6201783;23;20215;-92
2023/12/08 11:00:51;;;;;;;20.77;9.37;;;;;;;;;;6202931;23;20187;-91
2023/12/08 11:04:03;;;;;;;22.00;9.10;;;;;;;;;;6203491;23;20172;-90
2023/12/08 11:07:12;;;;;;;20.33;9.03;;;;;;;;;;6204768;23;20200;-90
2023/12/08 11:10:19;;;;;;;21.63;9.63;;;;;;;;;;6202174;23;20200;-92
2023/12/08 11:13:29;;;;;;;19.53;8.93;;;;;;;;;;6201219;23;20493;-91
2023/12/08 11:16:39;;;;;;;23.03;9.70;;;;;;;;;;6200338;23;20155;-89
2023/12/08 11:19:45;;;;;;;20.00;9.20;;;;;;;;;;6200063;23;20229;-89
2023/12/08 11:22:50;;;;;;;19.43;8.73;;;;;;;;;;6203837;23;20171;-91
2023/12/08 11:26:03;;;;;;;19.97;9.20;;;;;;;;;;6201884;23;20492;-90
2023/12/08 11:29:14;;;;;;;19.30;9.20;;;;;;;;;;6202531;23;20221;-90
2023/12/08 11:32:25;;;;;;;22.57;9.83;;;;;;;;;;6202842;23;20208;-90
2023/12/08 11:35:31;;;;;;;20.33;9.73;;;;;;;;;;6202304;23;20204;-88
2023/12/08 11:38:37;;;;;;;18.73;8.83;;;;;;;;;;6202059;23;20160;-91
2023/12/08 11:41:42;;;;;;;22.83;9.87;;;;;;;;;;6201154;23;20232;-91
2023/12/08 11:45:02;;;;;;;24.83;9.63;;;;;;;;;;6201369;23;20172;-90
2023/12/08 11:48:13;;;;;;;20.30;8.80;;;;;;;;;;6201479;23;20307;-89
2023/12/08 11:51:18;;;;;;;23.67;9.40;;;;;;;;;;6199580;23;20164;-89
2023/12/08 11:54:23;;;;;;;22.40;8.93;;;;;;;;;;6198831;23;20212;-89
2023/12/08 11:57:29;;;;;;;17.77;8.57;;;;;;;;;;6198696;23;20176;-90
2023/12/08 12:00:39;;;;;;;21.30;8.90;;;;;;;;;;6198076;23;20620;-90
2023/12/08 12:03:45;;;;;;;24.43;10.00;;;;;;;;;;6183994;23;20172;-91
2023/12/08 12:06:53;;;;;;;22.30;8.47;;;;;;;;;;6198753;23;20196;-90
2023/12/08 12:09:58;;;;;;;20.70;9.63;;;;;;;;;;6198160;23;20168;-90
2023/12/08 12:13:04;;;;;;;22.77;9.20;;;;;;;;;;6200995;23;20163;-92
2023/12/08 12:16:12;;;;;;;27.80;10.97;;;;;;;;;;6202715;23;20167;-90
2023/12/08 12:19:17;;;;;;;25.17;10.17;;;;;;;;;;6204558;23;20175;-92
2023/12/08 12:22:24;;;;;;;18.23;8.73;;;;;;;;;;6202812;23;20215;-91
2023/12/08 12:25:30;;;;;;;20.30;8.93;;;;;;;;;;6204668;23;20208;-90
2023/12/08 12:28:35;;;;;;;19.20;8.87;;;;;;;;;;6200767;23;20716;-93
2023/12/08 12:31:42;;;;;;;19.80;8.20;;;;;;;;;;6200873;23;20225;-89
2023/12/08 12:34:47;;;;;;;18.30;9.00;;;;;;;;;;6200303;23;20172;-91
2023/12/08 12:37:54;;;;;;;21.10;8.47;;;;;;;;;;6203556;23;20174;-93
2023/12/08 12:41:14;;;;;;;18.40;8.30;;;;;;;;;;6201946;23;20203;-89
2023/12/08 12:44:19;;;;;;;26.03;9.73;;;;;;;;;;6201569;23;20168;-88
2023/12/08 12:47:26;;;;;;;23.80;10.50;;;;;;;;;;6202459;23;20647;-91
2023/12/08 12:50:33;;;;;;;22.93;9.73;;;;;;;;;;6201818;23;20215;-92
2023/12/08 12:53:48;;;;;;;21.73;8.87;;;;;;;;;;6200138;23;20171;-90
2023/12/08 12:56:53;;;;;;;21.13;8.83;;;;;;;;;;6202811;23;20163;-91
2023/12/08 12:59:59;;;;;;;20.80;9.30;;;;;;;;;;6205387;23;20167;-90
2023/12/08 13:03:11;;;;;;;21.73;9.93;;;;;;;;;;6201839;23;20159;-92
2023/12/08 13:06:29;;;;;;;20.53;9.67;;;;;;;;;;6201521;23;20616;-92
2023/12/08 13:09:34;;;;;;;23.07;10.07;;;;;;;;;;6202640;23;20200;-90
2023/12/08 13:12:40;;;;;;;18.77;8.87;;;;;;;;;;6202008;23;20618;-90
2023/12/08 13:15:46;;;;;;;31.30;10.20;;;;;;;;;;6202643;23;20216;-91
2023/12/08 13:18:53;;;;;;;24.77;11.37;;;;;;;;;;6200960;23;20167;-91
2023/12/08 13:21:59;;;;;;;22.83;10.23;;;;;;;;;;6200716;23;20155;-91
2023/12/08 13:25:05;;;;;;;21.80;9.83;;;;;;;;;;6201415;23;20171;-90
2023/12/08 13:28:10;;;;;;;26.30;10.07;;;;;;;;;;6203343;23;20191;-89
2023/12/08 13:31:16;;;;;;;21.57;9.93;;;;;;;;;;6201770;23;20176;-89
2023/12/08 13:34:23;;;;;;;24.27;10.73;;;;;;;;;;6203170;23;20243;-89
2023/12/08 13:37:30;;;;;;;24.67;11.13;;;;;;;;;;6200777;23;20164;-90
2023/12/08 13:40:35;;;;;;;24.00;10.60;;;;;;;;;;6202289;23;20179;-90
2023/12/08 13:43:40;;;;;;;26.23;10.40;;;;;;;;;;6203690;23;20188;-88
2023/12/08 13:46:45;;;;;;;23.27;10.60;;;;;;;;;;6199721;23;20515;-90
2023/12/08 13:49:52;;;;;;;29.80;11.73;;;;;;;;;;6202749;23;20221;-90
2023/12/08 13:53:03;;;;;;;25.43;10.80;;;;;;;;;;6201918;23;20192;-91
2023/12/08 13:56:09;;;;;;;26.90;11.27;;;;;;;;;;6201584;23;20167;-90
2023/12/08 13:59:14;;;;;;;26.03;11.60;;;;;;;;;;6201843;23;20203;-90
2023/12/08 14:02:19;;;;;;;25.07;11.03;;;;;;;;;;6203480;23;20191;-92
2023/12/08 14:05:26;;;;;;;29.03;12.43;;;;;;;;;;6202458;23;20159;-90
2023/12/08 14:08:33;;;;;;;33.80;14.57;;;;;;;;;;6201921;23;20199;-92
2023/12/08 14:11:42;;;;;;;32.30;13.30;;;;;;;;;;6201310;23;20172;-89
2023/12/08 14:14:48;;;;;;;26.53;11.80;;;;;;;;;;6202648;23;20167;-92
2023/12/08 14:17:55;;;;;;;26.67;11.30;;;;;;;;;;6202231;23;20288;-91
2023/12/08 14:21:19;;;;;;;22.27;10.80;;;;;;;;;;6202835;23;20172;-91
2023/12/08 14:24:27;;;;;;;26.30;11.30;;;;;;;;;;6202070;23;20245;-91
2023/12/08 14:27:33;;;;;;;29.53;11.30;;;;;;;;;;6201570;23;20191;-90
2023/12/08 14:30:39;;;;;;;24.70;10.27;;;;;;;;;;6205309;23;20215;-91
2023/12/08 14:33:49;;;;;;;25.40;11.20;;;;;;;;;;6200594;23;20156;-94
2023/12/08 14:36:56;;;;;;;29.73;12.73;;;;;;;;;;6203559;23;20168;-90
2023/12/08 14:40:05;;;;;;;29.67;12.63;;;;;;;;;;6199500;23;20180;-91
2023/12/08 14:43:11;;;;;;;26.93;12.13;;;;;;;;;;6201098;23;20151;-91
2023/12/08 23:01:09;;;;;;;81.60;32.87;;;;;;;;;;6176703;23;20200;-90
2023/12/08 23:04:14;;;;;;;72.80;29.10;;;;;;;;;;6170594;23;20167;-89
2023/12/08 23:07:19;;;;;;;74.93;29.23;;;;;;;;;;6167698;23;20168;-90
2023/12/08 23:10:24;;;;;;;81.03;29.30;;;;;;;;;;6168815;23;20264;-90
2023/12/08 23:13:29;;;;;;;78.13;30.73;;;;;;;;;;6168650;23;20169;-89
2023/12/08 23:16:36;;;;;;;80.10;30.97;;;;;;;;;;6170346;23;20152;-89
2023/12/08 23:19:41;;;;;;;77.63;29.83;;;;;;;;;;6168248;23;20304;-91
2023/12/08 23:22:45;;;;;;;70.93;28.60;;;;;;;;;;6164239;23;20180;-89
2023/12/08 23:25:54;;;;;;;71.13;27.70;;;;;;;;;;6166670;23;20181;-92
2023/12/08 23:28:59;;;;;;;67.70;27.70;;;;;;;;;;6164482;23;20212;-89
2023/12/08 23:32:06;;;;;;;75.43;28.00;;;;;;;;;;6165763;23;20160;-91
2023/12/08 23:35:12;;;;;;;78.57;29.20;;;;;;;;;;6165478;23;20168;-89
2023/12/08 23:38:17;;;;;;;78.47;29.53;;;;;;;;;;6164663;23;20264;-89
2023/12/08 23:41:26;;;;;;;74.77;28.60;;;;;;;;;;6164436;23;20492;-89
2023/12/08 23:44:32;;;;;;;69.10;27.20;;;;;;;;;;6168752;23;20175;-91
2023/12/08 23:47:38;;;;;;;74.27;29.40;;;;;;;;;;6165639;23;20180;-91
2023/12/08 23:50:43;;;;;;;68.43;27.07;;;;;;;;;;6164097;23;20601;-90
2023/12/08 23:53:48;;;;;;;72.50;29.50;;;;;;;;;;6164423;23;20164;-92
2023/12/08 23:56:55;;;;;;;68.93;28.10;;;;;;;;;;6164056;23;20317;-91
